sensor_id;sensor_type;location;lat;lon;timestamp;temperature;humidity
52919;DHT22;38793;52.690;6.812;2023-07-02T00:00:59;16.50;99.90
52919;DHT22;38793;52.690;6.812;2023-07-02T00:03:24;16.50;99.90
52919;DHT22;38793;52.690;6.812;2023-07-02T00:05:50;16.50;99.90
52919;DHT22;38793;52.690;6.812;2023-07-02T00:08:20;16.50;99.90
52919;DHT22;38793;52.690;6.812;2023-07-02T00:10:45;16.50;99.90
52919;DHT22;38793;52.690;6.812;2023-07-02T00:13:11;16.50;99.90
52919;DHT22;38793;52.690;6.812;2023-07-02T00:15:36;16.40;99.90
52919;DHT22;38793;52.690;6.812;2023-07-02T00:18:02;16.40;99.90
52919;DHT22;38793;52.690;6.812;2023-07-02T00:20:28;16.40;99.90
52919;DHT22;38793;52.690;6.812;2023-07-02T00:22:55;16.30;99.90
52919;DHT22;38793;52.690;6.812;2023-07-02T00:25:22;16.30;99.90
52919;DHT22;38793;52.690;6.812;2023-07-02T00:27:47;16.30;99.90
52919;DHT22;38793;52.690;6.812;2023-07-02T00:30:13;16.20;99.90
52919;DHT22;38793;52.690;6.812;2023-07-02T00:32:39;16.20;99.90
52919;DHT22;38793;52.690;6.812;2023-07-02T00:35:05;16.10;99.90
52919;DHT22;38793;52.690;6.812;2023-07-02T00:37:30;16.10;99.90
52919;DHT22;38793;52.690;6.812;2023-07-02T00:39:56;16.10;99.90
52919;DHT22;38793;52.690;6.812;2023-07-02T00:42:22;16.00;99.90
52919;DHT22;38793;52.690;6.812;2023-07-02T00:44:48;16.00;99.90
52919;DHT22;38793;52.690;6.812;2023-07-02T00:47:14;16.00;99.90
52919;DHT22;38793;52.690;6.812;2023-07-02T00:49:41;16.00;99.90
52919;DHT22;38793;52.690;6.812;2023-07-02T00:52:07;16.00;99.90
52919;DHT22;38793;52.690;6.812;2023-07-02T00:54:33;16.00;99.90
52919;DHT22;38793;52.690;6.812;2023-07-02T00:56:58;15.90;99.90
52919;DHT22;38793;52.690;6.812;2023-07-02T00:59:28;16.00;99.90
52919;DHT22;38793;52.690;6.812;2023-07-02T01:01:55;16.00;99.90
52919;DHT22;38793;52.690;6.812;2023-07-02T01:04:22;16.00;99.90
52919;DHT22;38793;52.690;6.812;2023-07-02T01:06:53;16.00;99.90
52919;DHT22;38793;52.690;6.812;2023-07-02T01:09:23;16.00;99.90
52919;DHT22;38793;52.690;6.812;2023-07-02T01:11:57;16.00;99.90
52919;DHT22;38793;52.690;6.812;2023-07-02T01:14:32;16.00;99.90
52919;DHT22;38793;52.690;6.812;2023-07-02T01:16:59;16.00;99.90
52919;DHT22;38793;52.690;6.812;2023-07-02T01:22:01;16.00;99.90
52919;DHT22;38793;52.690;6.812;2023-07-02T01:24:27;16.00;99.90
52919;DHT22;38793;52.690;6.812;2023-07-02T01:26:53;16.10;99.90
52919;DHT22;38793;52.690;6.812;2023-07-02T01:29:20;16.00;99.90
52919;DHT22;38793;52.690;6.812;2023-07-02T01:31:47;16.00;99.90
52919;DHT22;38793;52.690;6.812;2023-07-02T01:34:13;16.00;99.90
52919;DHT22;38793;52.690;6.812;2023-07-02T01:36:39;15.90;99.90
52919;DHT22;38793;52.690;6.812;2023-07-02T01:39:05;15.90;99.90
52919;DHT22;38793;52.690;6.812;2023-07-02T01:42:22;15.90;99.90
52919;DHT22;38793;52.690;6.812;2023-07-02T01:44:23;15.80;99.90
52919;DHT22;38793;52.690;6.812;2023-07-02T01:46:48;15.70;99.90
52919;DHT22;38793;52.690;6.812;2023-07-02T01:49:15;15.70;99.90
52919;DHT22;38793;52.690;6.812;2023-07-02T01:51:51;15.60;99.90
52919;DHT22;38793;52.690;6.812;2023-07-02T01:54:18;15.60;99.90
52919;DHT22;38793;52.690;6.812;2023-07-02T01:56:44;15.60;99.90
52919;DHT22;38793;52.690;6.812;2023-07-02T01:59:09;15.60;99.90
52919;DHT22;38793;52.690;6.812;2023-07-02T02:01:35;15.60;99.90
52919;DHT22;38793;52.690;6.812;2023-07-02T02:04:00;15.60;99.90
52919;DHT22;38793;52.690;6.812;2023-07-02T02:06:26;15.50;99.90
52919;DHT22;38793;52.690;6.812;2023-07-02T02:08:52;15.60;99.90
52919;DHT22;38793;52.690;6.812;2023-07-02T02:11:17;15.50;99.90
52919;DHT22;38793;52.690;6.812;2023-07-02T02:13:43;15.50;99.90
52919;DHT22;38793;52.690;6.812;2023-07-02T02:16:08;15.40;99.90
52919;DHT22;38793;52.690;6.812;2023-07-02T02:18:34;15.40;99.90
52919;DHT22;38793;52.690;6.812;2023-07-02T02:21:00;15.30;99.90
52919;DHT22;38793;52.690;6.812;2023-07-02T02:23:25;15.30;99.90
52919;DHT22;38793;52.690;6.812;2023-07-02T02:25:51;15.30;99.90
52919;DHT22;38793;52.690;6.812;2023-07-02T02:28:17;15.20;99.90
52919;DHT22;38793;52.690;6.812;2023-07-02T02:30:42;15.20;99.90
52919;DHT22;38793;52.690;6.812;2023-07-02T02:33:08;15.10;99.90
52919;DHT22;38793;52.690;6.812;2023-07-02T02:35:33;15.10;99.90
52919;DHT22;38793;52.690;6.812;2023-07-02T02:38:02;15.00;99.90
52919;DHT22;38793;52.690;6.812;2023-07-02T02:40:28;15.00;99.90
52919;DHT22;38793;52.690;6.812;2023-07-02T02:42:53;15.00;99.90
52919;DHT22;38793;52.690;6.812;2023-07-02T02:45:19;14.90;99.90
52919;DHT22;38793;52.690;6.812;2023-07-02T02:47:46;14.90;99.90
52919;DHT22;38793;52.690;6.812;2023-07-02T02:50:13;14.90;99.90
52919;DHT22;38793;52.690;6.812;2023-07-02T02:52:38;14.80;99.90
52919;DHT22;38793;52.690;6.812;2023-07-02T02:55:06;14.70;99.90
52919;DHT22;38793;52.690;6.812;2023-07-02T02:57:32;14.70;99.90
52919;DHT22;38793;52.690;6.812;2023-07-02T02:59:58;14.70;99.90
52919;DHT22;38793;52.690;6.812;2023-07-02T03:02:24;14.70;99.90
52919;DHT22;38793;52.690;6.812;2023-07-02T03:04:49;14.60;99.90
52919;DHT22;38793;52.690;6.812;2023-07-02T03:07:17;14.60;99.90
52919;DHT22;38793;52.690;6.812;2023-07-02T03:09:43;14.60;99.90
52919;DHT22;38793;52.690;6.812;2023-07-02T03:12:09;14.60;99.90
52919;DHT22;38793;52.690;6.812;2023-07-02T03:14:34;14.50;99.90
52919;DHT22;38793;52.690;6.812;2023-07-02T03:17:00;14.50;99.90
52919;DHT22;38793;52.690;6.812;2023-07-02T03:19:26;14.40;99.90
52919;DHT22;38793;52.690;6.812;2023-07-02T03:21:51;14.40;99.90
52919;DHT22;38793;52.690;6.812;2023-07-02T03:24:17;14.40;99.90
52919;DHT22;38793;52.690;6.812;2023-07-02T03:26:44;14.30;99.90
52919;DHT22;38793;52.690;6.812;2023-07-02T03:29:10;14.30;99.90
52919;DHT22;38793;52.690;6.812;2023-07-02T03:31:35;14.30;99.90
52919;DHT22;38793;52.690;6.812;2023-07-02T03:34:07;14.30;99.90
52919;DHT22;38793;52.690;6.812;2023-07-02T03:36:33;14.30;99.90
52919;DHT22;38793;52.690;6.812;2023-07-02T03:38:59;14.30;99.90
52919;DHT22;38793;52.690;6.812;2023-07-02T03:41:24;14.20;99.90
52919;DHT22;38793;52.690;6.812;2023-07-02T03:43:50;14.20;99.90
52919;DHT22;38793;52.690;6.812;2023-07-02T03:46:16;14.20;99.90
52919;DHT22;38793;52.690;6.812;2023-07-02T03:48:41;14.20;99.90
52919;DHT22;38793;52.690;6.812;2023-07-02T03:51:07;14.30;99.90
52919;DHT22;38793;52.690;6.812;2023-07-02T03:53:33;14.30;99.90
52919;DHT22;38793;52.690;6.812;2023-07-02T03:55:59;14.30;99.90
52919;DHT22;38793;52.690;6.812;2023-07-02T03:58:24;14.30;99.90
52919;DHT22;38793;52.690;6.812;2023-07-02T04:00:50;14.30;99.90
52919;DHT22;38793;52.690;6.812;2023-07-02T04:03:18;14.30;99.90
52919;DHT22;38793;52.690;6.812;2023-07-02T04:05:44;14.30;99.90
52919;DHT22;38793;52.690;6.812;2023-07-02T04:08:10;14.30;99.90
52919;DHT22;38793;52.690;6.812;2023-07-02T04:10:36;14.30;99.90
52919;DHT22;38793;52.690;6.812;2023-07-02T04:13:01;14.30;99.90
52919;DHT22;38793;52.690;6.812;2023-07-02T04:15:27;14.30;99.90
52919;DHT22;38793;52.690;6.812;2023-07-02T04:17:53;14.30;99.90
52919;DHT22;38793;52.690;6.812;2023-07-02T04:20:19;14.40;99.90
52919;DHT22;38793;52.690;6.812;2023-07-02T04:22:45;14.30;99.90
52919;DHT22;38793;52.690;6.812;2023-07-02T04:25:12;14.40;99.90
52919;DHT22;38793;52.690;6.812;2023-07-02T04:27:44;14.40;99.90
52919;DHT22;38793;52.690;6.812;2023-07-02T04:30:10;14.40;99.90
52919;DHT22;38793;52.690;6.812;2023-07-02T04:32:37;14.50;99.90
52919;DHT22;38793;52.690;6.812;2023-07-02T04:35:07;14.50;99.90
52919;DHT22;38793;52.690;6.812;2023-07-02T04:37:34;14.50;99.90
52919;DHT22;38793;52.690;6.812;2023-07-02T04:39:59;14.50;99.90
52919;DHT22;38793;52.690;6.812;2023-07-02T04:42:26;14.50;99.90
52919;DHT22;38793;52.690;6.812;2023-07-02T04:44:53;14.60;99.90
52919;DHT22;38793;52.690;6.812;2023-07-02T04:47:20;14.60;99.90
52919;DHT22;38793;52.690;6.812;2023-07-02T04:49:45;14.60;99.90
52919;DHT22;38793;52.690;6.812;2023-07-02T04:52:11;14.70;99.90
52919;DHT22;38793;52.690;6.812;2023-07-02T04:54:37;14.70;99.90
52919;DHT22;38793;52.690;6.812;2023-07-02T04:57:03;14.80;99.90
52919;DHT22;38793;52.690;6.812;2023-07-02T04:59:29;14.80;99.90
52919;DHT22;38793;52.690;6.812;2023-07-02T05:01:54;14.80;99.90
52919;DHT22;38793;52.690;6.812;2023-07-02T05:04:20;14.90;99.90
52919;DHT22;38793;52.690;6.812;2023-07-02T05:06:45;14.90;99.90
52919;DHT22;38793;52.690;6.812;2023-07-02T05:09:11;15.00;99.90
52919;DHT22;38793;52.690;6.812;2023-07-02T05:11:36;15.00;99.90
52919;DHT22;38793;52.690;6.812;2023-07-02T05:14:02;15.00;99.90
52919;DHT22;38793;52.690;6.812;2023-07-02T05:16:28;15.10;99.90
52919;DHT22;38793;52.690;6.812;2023-07-02T05:18:54;15.10;99.90
52919;DHT22;38793;52.690;6.812;2023-07-02T05:21:19;15.20;99.90
52919;DHT22;38793;52.690;6.812;2023-07-02T05:23:45;15.30;99.90
52919;DHT22;38793;52.690;6.812;2023-07-02T05:26:11;15.40;99.90
52919;DHT22;38793;52.690;6.812;2023-07-02T05:28:36;15.50;99.90
52919;DHT22;38793;52.690;6.812;2023-07-02T05:31:02;15.60;99.90
52919;DHT22;38793;52.690;6.812;2023-07-02T05:33:27;15.60;99.90
52919;DHT22;38793;52.690;6.812;2023-07-02T05:35:53;15.70;99.90
52919;DHT22;38793;52.690;6.812;2023-07-02T05:38:19;15.70;99.90
52919;DHT22;38793;52.690;6.812;2023-07-02T05:40:45;15.90;99.90
52919;DHT22;38793;52.690;6.812;2023-07-02T05:43:11;15.90;99.90
52919;DHT22;38793;52.690;6.812;2023-07-02T05:45:37;16.00;99.90
52919;DHT22;38793;52.690;6.812;2023-07-02T05:48:03;15.90;99.90
52919;DHT22;38793;52.690;6.812;2023-07-02T05:50:28;15.90;99.90
52919;DHT22;38793;52.690;6.812;2023-07-02T05:52:54;16.00;99.90
52919;DHT22;38793;52.690;6.812;2023-07-02T05:55:19;16.00;99.90
52919;DHT22;38793;52.690;6.812;2023-07-02T05:57:45;16.10;99.90
52919;DHT22;38793;52.690;6.812;2023-07-02T06:00:11;16.20;99.90
52919;DHT22;38793;52.690;6.812;2023-07-02T06:02:38;16.30;99.90
52919;DHT22;38793;52.690;6.812;2023-07-02T06:05:03;16.40;99.90
52919;DHT22;38793;52.690;6.812;2023-07-02T06:07:29;16.50;99.90
52919;DHT22;38793;52.690;6.812;2023-07-02T06:09:55;16.60;99.90
52919;DHT22;38793;52.690;6.812;2023-07-02T06:12:21;16.70;99.90
52919;DHT22;38793;52.690;6.812;2023-07-02T06:14:47;16.70;99.90
52919;DHT22;38793;52.690;6.812;2023-07-02T06:17:13;16.80;99.90
52919;DHT22;38793;52.690;6.812;2023-07-02T06:19:40;16.80;99.90
52919;DHT22;38793;52.690;6.812;2023-07-02T06:22:06;16.90;99.90
52919;DHT22;38793;52.690;6.812;2023-07-02T06:24:32;17.00;99.90
52919;DHT22;38793;52.690;6.812;2023-07-02T06:26:58;17.10;99.90
52919;DHT22;38793;52.690;6.812;2023-07-02T06:29:23;17.20;99.90
52919;DHT22;38793;52.690;6.812;2023-07-02T06:31:50;17.20;99.90
52919;DHT22;38793;52.690;6.812;2023-07-02T06:34:16;17.20;99.90
52919;DHT22;38793;52.690;6.812;2023-07-02T06:36:42;17.30;99.90
52919;DHT22;38793;52.690;6.812;2023-07-02T06:39:08;17.40;99.90
52919;DHT22;38793;52.690;6.812;2023-07-02T06:41:35;17.40;99.90
52919;DHT22;38793;52.690;6.812;2023-07-02T06:44:00;17.50;99.90
52919;DHT22;38793;52.690;6.812;2023-07-02T06:46:26;17.60;99.90
52919;DHT22;38793;52.690;6.812;2023-07-02T06:48:52;17.60;99.90
52919;DHT22;38793;52.690;6.812;2023-07-02T06:51:17;17.70;99.90
52919;DHT22;38793;52.690;6.812;2023-07-02T06:53:44;17.70;99.90
52919;DHT22;38793;52.690;6.812;2023-07-02T06:56:10;17.70;99.90
52919;DHT22;38793;52.690;6.812;2023-07-02T06:58:36;17.80;99.90
52919;DHT22;38793;52.690;6.812;2023-07-02T07:01:01;17.70;99.90
52919;DHT22;38793;52.690;6.812;2023-07-02T07:03:27;17.60;99.90
52919;DHT22;38793;52.690;6.812;2023-07-02T07:05:53;17.60;99.90
52919;DHT22;38793;52.690;6.812;2023-07-02T07:08:19;17.70;99.90
52919;DHT22;38793;52.690;6.812;2023-07-02T07:10:44;17.70;99.90
52919;DHT22;38793;52.690;6.812;2023-07-02T07:13:11;17.70;99.90
52919;DHT22;38793;52.690;6.812;2023-07-02T07:15:37;17.60;99.90
52919;DHT22;38793;52.690;6.812;2023-07-02T07:18:03;17.50;99.90
52919;DHT22;38793;52.690;6.812;2023-07-02T07:20:29;17.40;99.90
52919;DHT22;38793;52.690;6.812;2023-07-02T07:22:55;17.30;99.90
52919;DHT22;38793;52.690;6.812;2023-07-02T07:25:21;17.30;99.90
52919;DHT22;38793;52.690;6.812;2023-07-02T07:27:47;17.50;99.90
52919;DHT22;38793;52.690;6.812;2023-07-02T07:30:12;17.50;99.90
52919;DHT22;38793;52.690;6.812;2023-07-02T07:32:40;17.50;99.90
52919;DHT22;38793;52.690;6.812;2023-07-02T07:35:07;17.40;99.90
52919;DHT22;38793;52.690;6.812;2023-07-02T07:37:32;17.50;99.90
52919;DHT22;38793;52.690;6.812;2023-07-02T07:39:58;17.60;99.90
52919;DHT22;38793;52.690;6.812;2023-07-02T07:42:23;17.80;99.90
52919;DHT22;38793;52.690;6.812;2023-07-02T07:44:49;17.90;99.90
52919;DHT22;38793;52.690;6.812;2023-07-02T07:47:15;17.80;99.90
52919;DHT22;38793;52.690;6.812;2023-07-02T07:49:40;17.80;99.90
52919;DHT22;38793;52.690;6.812;2023-07-02T07:52:06;17.60;99.90
52919;DHT22;38793;52.690;6.812;2023-07-02T07:54:32;17.60;99.90
52919;DHT22;38793;52.690;6.812;2023-07-02T07:56:58;17.50;99.90
52919;DHT22;38793;52.690;6.812;2023-07-02T07:59:23;17.40;99.90
52919;DHT22;38793;52.690;6.812;2023-07-02T08:01:49;17.40;99.90
52919;DHT22;38793;52.690;6.812;2023-07-02T08:04:15;17.40;99.90
52919;DHT22;38793;52.690;6.812;2023-07-02T08:06:40;17.70;99.90
52919;DHT22;38793;52.690;6.812;2023-07-02T08:09:06;17.80;99.90
52919;DHT22;38793;52.690;6.812;2023-07-02T08:11:31;17.90;99.90
52919;DHT22;38793;52.690;6.812;2023-07-02T08:13:57;18.00;99.90
52919;DHT22;38793;52.690;6.812;2023-07-02T08:16:23;17.90;99.90
52919;DHT22;38793;52.690;6.812;2023-07-02T08:18:48;17.80;99.90
52919;DHT22;38793;52.690;6.812;2023-07-02T08:21:14;17.90;99.90
52919;DHT22;38793;52.690;6.812;2023-07-02T08:23:42;18.10;99.90
52919;DHT22;38793;52.690;6.812;2023-07-02T08:26:09;18.30;99.90
52919;DHT22;38793;52.690;6.812;2023-07-02T08:28:36;18.50;99.90
52919;DHT22;38793;52.690;6.812;2023-07-02T08:31:03;18.40;99.90
52919;DHT22;38793;52.690;6.812;2023-07-02T08:33:29;18.50;99.90
52919;DHT22;38793;52.690;6.812;2023-07-02T08:35:55;18.60;99.90
52919;DHT22;38793;52.690;6.812;2023-07-02T08:38:21;18.80;99.50
52919;DHT22;38793;52.690;6.812;2023-07-02T08:40:48;18.90;99.70
52919;DHT22;38793;52.690;6.812;2023-07-02T08:43:14;19.00;98.40
52919;DHT22;38793;52.690;6.812;2023-07-02T08:45:41;19.20;98.50
52919;DHT22;38793;52.690;6.812;2023-07-02T08:48:08;19.30;97.80
52919;DHT22;38793;52.690;6.812;2023-07-02T08:50:33;19.30;97.30
52919;DHT22;38793;52.690;6.812;2023-07-02T08:52:59;19.20;96.90
52919;DHT22;38793;52.690;6.812;2023-07-02T08:55:25;19.00;97.00
52919;DHT22;38793;52.690;6.812;2023-07-02T08:57:53;18.90;95.80
52919;DHT22;38793;52.690;6.812;2023-07-02T09:00:20;18.80;95.30
52919;DHT22;38793;52.690;6.812;2023-07-02T09:02:46;18.80;95.10
52919;DHT22;38793;52.690;6.812;2023-07-02T09:05:12;18.80;95.70
52919;DHT22;38793;52.690;6.812;2023-07-02T09:07:45;18.80;95.30
52919;DHT22;38793;52.690;6.812;2023-07-02T09:10:11;18.70;95.70
52919;DHT22;38793;52.690;6.812;2023-07-02T09:12:37;18.60;95.10
52919;DHT22;38793;52.690;6.812;2023-07-02T09:15:07;18.70;95.50
52919;DHT22;38793;52.690;6.812;2023-07-02T09:17:35;18.70;95.50
52919;DHT22;38793;52.690;6.812;2023-07-02T09:20:03;18.70;95.80
52919;DHT22;38793;52.690;6.812;2023-07-02T09:22:30;18.70;96.40
52919;DHT22;38793;52.690;6.812;2023-07-02T09:25:00;18.70;96.20
52919;DHT22;38793;52.690;6.812;2023-07-02T09:27:39;18.70;95.90
52919;DHT22;38793;52.690;6.812;2023-07-02T09:32:35;18.70;95.80
52919;DHT22;38793;52.690;6.812;2023-07-02T09:35:01;18.70;97.10
52919;DHT22;38793;52.690;6.812;2023-07-02T09:37:27;18.60;95.40
52919;DHT22;38793;52.690;6.812;2023-07-02T09:39:55;18.40;95.40
52919;DHT22;38793;52.690;6.812;2023-07-02T09:42:21;18.20;96.20
52919;DHT22;38793;52.690;6.812;2023-07-02T09:44:47;18.20;96.80
52919;DHT22;38793;52.690;6.812;2023-07-02T09:47:17;18.30;97.80
52919;DHT22;38793;52.690;6.812;2023-07-02T09:49:54;18.40;97.90
52919;DHT22;38793;52.690;6.812;2023-07-02T09:52:20;18.40;98.20
52919;DHT22;38793;52.690;6.812;2023-07-02T09:54:46;18.40;98.00
52919;DHT22;38793;52.690;6.812;2023-07-02T09:57:11;18.40;98.40
52919;DHT22;38793;52.690;6.812;2023-07-02T09:59:38;18.50;98.00
52919;DHT22;38793;52.690;6.812;2023-07-02T10:02:05;18.50;98.30
52919;DHT22;38793;52.690;6.812;2023-07-02T10:04:40;18.50;97.80
52919;DHT22;38793;52.690;6.812;2023-07-02T10:07:06;18.50;98.10
52919;DHT22;38793;52.690;6.812;2023-07-02T10:09:40;18.60;98.70
52919;DHT22;38793;52.690;6.812;2023-07-02T10:12:16;18.80;98.70
52919;DHT22;38793;52.690;6.812;2023-07-02T10:14:42;18.90;97.30
52919;DHT22;38793;52.690;6.812;2023-07-02T10:17:09;18.90;97.00
52919;DHT22;38793;52.690;6.812;2023-07-02T10:19:34;18.90;97.40
52919;DHT22;38793;52.690;6.812;2023-07-02T10:22:04;18.80;96.90
52919;DHT22;38793;52.690;6.812;2023-07-02T10:24:30;18.80;97.20
52919;DHT22;38793;52.690;6.812;2023-07-02T10:27:00;18.80;97.20
52919;DHT22;38793;52.690;6.812;2023-07-02T10:29:27;18.70;97.00
52919;DHT22;38793;52.690;6.812;2023-07-02T10:31:55;18.60;97.10
52919;DHT22;38793;52.690;6.812;2023-07-02T10:34:34;18.40;97.30
52919;DHT22;38793;52.690;6.812;2023-07-02T10:37:01;18.30;97.60
52919;DHT22;38793;52.690;6.812;2023-07-02T10:39:30;18.20;97.40
52919;DHT22;38793;52.690;6.812;2023-07-02T10:42:06;18.20;97.40
52919;DHT22;38793;52.690;6.812;2023-07-02T10:44:33;18.10;97.30
52919;DHT22;38793;52.690;6.812;2023-07-02T10:46:58;18.10;97.60
52919;DHT22;38793;52.690;6.812;2023-07-02T10:49:30;18.10;97.50
52919;DHT22;38793;52.690;6.812;2023-07-02T10:52:00;18.20;98.00
52919;DHT22;38793;52.690;6.812;2023-07-02T10:54:26;18.40;97.80
52919;DHT22;38793;52.690;6.812;2023-07-02T10:56:57;18.50;97.70
52919;DHT22;38793;52.690;6.812;2023-07-02T10:59:24;18.60;97.50
52919;DHT22;38793;52.690;6.812;2023-07-02T11:01:50;18.60;97.50
52919;DHT22;38793;52.690;6.812;2023-07-02T11:04:16;18.90;97.90
52919;DHT22;38793;52.690;6.812;2023-07-02T11:06:42;19.20;97.30
52919;DHT22;38793;52.690;6.812;2023-07-02T11:09:16;19.50;96.70
52919;DHT22;38793;52.690;6.812;2023-07-02T11:11:56;19.50;96.70
52919;DHT22;38793;52.690;6.812;2023-07-02T11:14:33;19.60;95.80
52919;DHT22;38793;52.690;6.812;2023-07-02T11:17:00;19.70;94.70
52919;DHT22;38793;52.690;6.812;2023-07-02T11:19:27;19.60;94.10
52919;DHT22;38793;52.690;6.812;2023-07-02T11:21:54;19.50;94.80
52919;DHT22;38793;52.690;6.812;2023-07-02T11:24:33;19.40;94.10
52919;DHT22;38793;52.690;6.812;2023-07-02T11:27:00;19.50;94.30
52919;DHT22;38793;52.690;6.812;2023-07-02T11:29:28;19.50;94.60
52919;DHT22;38793;52.690;6.812;2023-07-02T11:31:54;19.80;93.50
52919;DHT22;38793;52.690;6.812;2023-07-02T11:34:22;20.00;92.60
52919;DHT22;38793;52.690;6.812;2023-07-02T11:36:48;20.10;92.40
52919;DHT22;38793;52.690;6.812;2023-07-02T11:39:13;20.10;92.30
52919;DHT22;38793;52.690;6.812;2023-07-02T11:41:45;20.00;93.10
52919;DHT22;38793;52.690;6.812;2023-07-02T11:44:10;20.00;92.40
52919;DHT22;38793;52.690;6.812;2023-07-02T11:46:36;19.90;91.40
52919;DHT22;38793;52.690;6.812;2023-07-02T11:49:03;19.80;92.10
52919;DHT22;38793;52.690;6.812;2023-07-02T11:51:44;19.70;93.10
52919;DHT22;38793;52.690;6.812;2023-07-02T11:54:13;19.60;93.50
52919;DHT22;38793;52.690;6.812;2023-07-02T11:56:39;19.50;92.10
52919;DHT22;38793;52.690;6.812;2023-07-02T11:59:07;19.60;93.30
52919;DHT22;38793;52.690;6.812;2023-07-02T12:01:33;19.80;91.80
52919;DHT22;38793;52.690;6.812;2023-07-02T12:03:58;20.00;92.20
52919;DHT22;38793;52.690;6.812;2023-07-02T12:06:24;20.10;91.40
52919;DHT22;38793;52.690;6.812;2023-07-02T12:08:49;20.20;92.70
52919;DHT22;38793;52.690;6.812;2023-07-02T12:11:15;20.50;92.20
52919;DHT22;38793;52.690;6.812;2023-07-02T12:13:41;20.60;92.10
52919;DHT22;38793;52.690;6.812;2023-07-02T12:16:06;20.70;92.10
52919;DHT22;38793;52.690;6.812;2023-07-02T12:18:32;20.80;89.80
52919;DHT22;38793;52.690;6.812;2023-07-02T12:20:58;20.70;90.40
52919;DHT22;38793;52.690;6.812;2023-07-02T12:23:23;20.50;90.20
52919;DHT22;38793;52.690;6.812;2023-07-02T12:25:49;20.40;86.50
52919;DHT22;38793;52.690;6.812;2023-07-02T12:28:15;20.20;89.00
52919;DHT22;38793;52.690;6.812;2023-07-02T12:30:40;20.10;89.30
52919;DHT22;38793;52.690;6.812;2023-07-02T12:33:06;20.00;88.40
52919;DHT22;38793;52.690;6.812;2023-07-02T12:35:31;19.90;90.30
52919;DHT22;38793;52.690;6.812;2023-07-02T12:37:57;20.00;90.70
52919;DHT22;38793;52.690;6.812;2023-07-02T12:40:22;20.10;90.30
52919;DHT22;38793;52.690;6.812;2023-07-02T12:42:49;20.10;89.70
52919;DHT22;38793;52.690;6.812;2023-07-02T12:45:17;20.10;89.00
52919;DHT22;38793;52.690;6.812;2023-07-02T12:47:43;20.10;86.60
52919;DHT22;38793;52.690;6.812;2023-07-02T12:50:09;20.10;86.60
52919;DHT22;38793;52.690;6.812;2023-07-02T12:52:35;20.20;89.40
52919;DHT22;38793;52.690;6.812;2023-07-02T12:55:01;20.30;88.40
52919;DHT22;38793;52.690;6.812;2023-07-02T12:57:27;20.50;89.40
52919;DHT22;38793;52.690;6.812;2023-07-02T12:59:53;20.70;84.90
52919;DHT22;38793;52.690;6.812;2023-07-02T13:02:20;20.80;85.90
52919;DHT22;38793;52.690;6.812;2023-07-02T13:04:45;20.80;84.30
52919;DHT22;38793;52.690;6.812;2023-07-02T13:07:11;20.60;84.10
52919;DHT22;38793;52.690;6.812;2023-07-02T13:09:36;20.50;83.90
52919;DHT22;38793;52.690;6.812;2023-07-02T13:12:02;20.50;80.80
52919;DHT22;38793;52.690;6.812;2023-07-02T13:14:28;20.60;84.90
52919;DHT22;38793;52.690;6.812;2023-07-02T13:16:53;20.70;85.80
52919;DHT22;38793;52.690;6.812;2023-07-02T13:19:19;20.70;84.30
52919;DHT22;38793;52.690;6.812;2023-07-02T13:21:44;20.60;83.50
52919;DHT22;38793;52.690;6.812;2023-07-02T13:24:10;20.40;83.40
52919;DHT22;38793;52.690;6.812;2023-07-02T13:26:37;20.40;84.70
52919;DHT22;38793;52.690;6.812;2023-07-02T13:29:03;20.50;86.60
52919;DHT22;38793;52.690;6.812;2023-07-02T13:31:28;20.70;84.50
52919;DHT22;38793;52.690;6.812;2023-07-02T13:33:54;20.60;85.10
52919;DHT22;38793;52.690;6.812;2023-07-02T13:36:19;20.60;83.10
52919;DHT22;38793;52.690;6.812;2023-07-02T13:38:45;20.50;83.20
52919;DHT22;38793;52.690;6.812;2023-07-02T13:41:10;20.60;83.60
52919;DHT22;38793;52.690;6.812;2023-07-02T13:43:36;20.70;82.10
52919;DHT22;38793;52.690;6.812;2023-07-02T13:46:02;20.70;82.10
52919;DHT22;38793;52.690;6.812;2023-07-02T13:48:28;20.80;82.20
52919;DHT22;38793;52.690;6.812;2023-07-02T13:50:53;20.80;82.00
52919;DHT22;38793;52.690;6.812;2023-07-02T13:53:19;20.80;79.20
52919;DHT22;38793;52.690;6.812;2023-07-02T13:55:45;20.80;79.30
52919;DHT22;38793;52.690;6.812;2023-07-02T13:58:11;20.50;78.40
52919;DHT22;38793;52.690;6.812;2023-07-02T14:00:36;20.30;81.10
52919;DHT22;38793;52.690;6.812;2023-07-02T14:03:02;20.20;83.00
52919;DHT22;38793;52.690;6.812;2023-07-02T14:05:28;20.20;83.60
52919;DHT22;38793;52.690;6.812;2023-07-02T14:07:53;20.40;83.30
52919;DHT22;38793;52.690;6.812;2023-07-02T14:10:19;20.60;83.00
52919;DHT22;38793;52.690;6.812;2023-07-02T14:12:44;20.70;77.90
52919;DHT22;38793;52.690;6.812;2023-07-02T14:15:10;20.70;79.20
52919;DHT22;38793;52.690;6.812;2023-07-02T14:17:36;20.80;78.40
52919;DHT22;38793;52.690;6.812;2023-07-02T14:20:03;20.80;78.00
52919;DHT22;38793;52.690;6.812;2023-07-02T14:22:28;20.70;79.30
52919;DHT22;38793;52.690;6.812;2023-07-02T14:24:54;20.90;79.00
52919;DHT22;38793;52.690;6.812;2023-07-02T14:27:20;20.90;75.30
52919;DHT22;38793;52.690;6.812;2023-07-02T14:29:46;20.80;78.80
52919;DHT22;38793;52.690;6.812;2023-07-02T14:32:13;20.70;78.10
52919;DHT22;38793;52.690;6.812;2023-07-02T14:34:38;20.60;78.60
52919;DHT22;38793;52.690;6.812;2023-07-02T14:37:05;20.40;78.20
52919;DHT22;38793;52.690;6.812;2023-07-02T14:39:31;20.30;79.10
52919;DHT22;38793;52.690;6.812;2023-07-02T14:41:57;20.30;79.20
52919;DHT22;38793;52.690;6.812;2023-07-02T14:44:22;20.20;79.30
52919;DHT22;38793;52.690;6.812;2023-07-02T14:46:48;20.30;80.10
52919;DHT22;38793;52.690;6.812;2023-07-02T14:49:14;20.30;81.60
52919;DHT22;38793;52.690;6.812;2023-07-02T14:51:40;20.50;81.20
52919;DHT22;38793;52.690;6.812;2023-07-02T14:54:06;20.50;77.40
52919;DHT22;38793;52.690;6.812;2023-07-02T14:56:32;20.40;78.10
52919;DHT22;38793;52.690;6.812;2023-07-02T14:58:58;20.30;78.30
52919;DHT22;38793;52.690;6.812;2023-07-02T15:01:23;20.30;79.30
52919;DHT22;38793;52.690;6.812;2023-07-02T15:03:49;20.50;81.10
52919;DHT22;38793;52.690;6.812;2023-07-02T15:06:16;20.60;80.60
52919;DHT22;38793;52.690;6.812;2023-07-02T15:08:43;20.70;78.50
52919;DHT22;38793;52.690;6.812;2023-07-02T15:11:11;20.60;78.80
52919;DHT22;38793;52.690;6.812;2023-07-02T15:13:37;20.30;80.30
52919;DHT22;38793;52.690;6.812;2023-07-02T15:16:04;20.20;80.10
52919;DHT22;38793;52.690;6.812;2023-07-02T15:18:30;20.20;80.40
52919;DHT22;38793;52.690;6.812;2023-07-02T15:20:55;20.10;79.30
52919;DHT22;38793;52.690;6.812;2023-07-02T15:23:22;20.10;81.50
52919;DHT22;38793;52.690;6.812;2023-07-02T15:25:55;20.10;79.50
52919;DHT22;38793;52.690;6.812;2023-07-02T15:28:21;20.00;79.60
52919;DHT22;38793;52.690;6.812;2023-07-02T15:30:54;20.00;80.40